sensor_id;sensor_type;location;lat;lon;timestamp;P1;P2;P0
71872;PMS5003;59745;52.924;-2.388;2022-09-21T00:03:00;19;18;
71872;PMS5003;59745;52.924;-2.388;2022-09-21T00:05:24;14;14;
71872;PMS5003;59745;52.924;-2.388;2022-09-21T00:07:50;21;20;
71872;PMS5003;59745;52.924;-2.388;2022-09-21T00:10:15;21;18;
71872;PMS5003;59745;52.924;-2.388;2022-09-21T00:12:41;22;20;
71872;PMS5003;59745;52.924;-2.388;2022-09-21T00:15:08;16;15;
71872;PMS5003;59745;52.924;-2.388;2022-09-21T00:17:32;18;18;
71872;PMS5003;59745;52.924;-2.388;2022-09-21T00:19:58;22;22;
71872;PMS5003;59745;52.924;-2.388;2022-09-21T00:22:23;18;17;
71872;PMS5003;59745;52.924;-2.388;2022-09-21T00:24:49;21;20;
71872;PMS5003;59745;52.924;-2.388;2022-09-21T00:27:14;17;17;
71872;PMS5003;59745;52.924;-2.388;2022-09-21T00:29:39;18;16;
71872;PMS5003;59745;52.924;-2.388;2022-09-21T00:32:05;23;21;
71872;PMS5003;59745;52.924;-2.388;2022-09-21T00:34:30;18;16;
71872;PMS5003;59745;52.924;-2.388;2022-09-21T00:36:56;16;16;
71872;PMS5003;59745;52.924;-2.388;2022-09-21T00:39:21;21;20;
71872;PMS5003;59745;52.924;-2.388;2022-09-21T00:41:46;15;14;
71872;PMS5003;59745;52.924;-2.388;2022-09-21T00:44:19;14;14;
71872;PMS5003;59745;52.924;-2.388;2022-09-21T00:46:37;17;17;
71872;PMS5003;59745;52.924;-2.388;2022-09-21T00:49:02;15;14;
71872;PMS5003;59745;52.924;-2.388;2022-09-21T00:51:27;16;16;
71872;PMS5003;59745;52.924;-2.388;2022-09-21T00:53:53;17;15;
71872;PMS5003;59745;52.924;-2.388;2022-09-21T00:56:18;18;17;
71872;PMS5003;59745;52.924;-2.388;2022-09-21T00:58:44;13;13;
71872;PMS5003;59745;52.924;-2.388;2022-09-21T01:01:09;15;14;
71872;PMS5003;59745;52.924;-2.388;2022-09-21T01:03:34;16;14;
71872;PMS5003;59745;52.924;-2.388;2022-09-21T01:06:00;17;16;
71872;PMS5003;59745;52.924;-2.388;2022-09-21T01:08:26;16;15;
71872;PMS5003;59745;52.924;-2.388;2022-09-21T01:10:57;13;13;
71872;PMS5003;59745;52.924;-2.388;2022-09-21T01:13:19;14;13;
71872;PMS5003;59745;52.924;-2.388;2022-09-21T01:15:44;13;13;
71872;PMS5003;59745;52.924;-2.388;2022-09-21T01:18:10;15;12;
71872;PMS5003;59745;52.924;-2.388;2022-09-21T01:20:38;13;12;
71872;PMS5003;59745;52.924;-2.388;2022-09-21T01:23:04;18;17;
71872;PMS5003;59745;52.924;-2.388;2022-09-21T01:25:26;16;15;
71872;PMS5003;59745;52.924;-2.388;2022-09-21T01:27:53;14;12;
71872;PMS5003;59745;52.924;-2.388;2022-09-21T01:30:14;13;11;
71872;PMS5003;59745;52.924;-2.388;2022-09-21T01:32:40;9;9;
71872;PMS5003;59745;52.924;-2.388;2022-09-21T01:35:05;13;12;
71872;PMS5003;59745;52.924;-2.388;2022-09-21T01:37:31;10;10;
71872;PMS5003;59745;52.924;-2.388;2022-09-21T01:39:56;8;8;
71872;PMS5003;59745;52.924;-2.388;2022-09-21T01:42:21;11;10;
71872;PMS5003;59745;52.924;-2.388;2022-09-21T01:44:46;11;11;
71872;PMS5003;59745;52.924;-2.388;2022-09-21T01:47:11;14;12;
71872;PMS5003;59745;52.924;-2.388;2022-09-21T01:49:37;11;9;
71872;PMS5003;59745;52.924;-2.388;2022-09-21T01:52:04;12;11;
71872;PMS5003;59745;52.924;-2.388;2022-09-21T01:54:27;13;12;
71872;PMS5003;59745;52.924;-2.388;2022-09-21T01:56:53;11;10;
71872;PMS5003;59745;52.924;-2.388;2022-09-21T01:59:18;11;11;
71872;PMS5003;59745;52.924;-2.388;2022-09-21T02:01:44;12;12;
71872;PMS5003;59745;52.924;-2.388;2022-09-21T02:04:09;14;14;
71872;PMS5003;59745;52.924;-2.388;2022-09-21T02:06:34;10;9;
71872;PMS5003;59745;52.924;-2.388;2022-09-21T02:08:59;11;11;
71872;PMS5003;59745;52.924;-2.388;2022-09-21T02:11:24;12;12;
71872;PMS5003;59745;52.924;-2.388;2022-09-21T02:13:51;10;9;
71872;PMS5003;59745;52.924;-2.388;2022-09-21T02:16:21;11;11;
71872;PMS5003;59745;52.924;-2.388;2022-09-21T02:18:42;9;9;
71872;PMS5003;59745;52.924;-2.388;2022-09-21T02:21:06;15;14;
71872;PMS5003;59745;52.924;-2.388;2022-09-21T02:23:31;13;10;
71872;PMS5003;59745;52.924;-2.388;2022-09-21T02:25:57;14;10;
71872;PMS5003;59745;52.924;-2.388;2022-09-21T02:28:25;11;11;
71872;PMS5003;59745;52.924;-2.388;2022-09-21T02:30:46;11;10;
71872;PMS5003;59745;52.924;-2.388;2022-09-21T02:33:12;10;8;
71872;PMS5003;59745;52.924;-2.388;2022-09-21T02:35:39;10;10;
71872;PMS5003;59745;52.924;-2.388;2022-09-21T02:38:06;11;11;
71872;PMS5003;59745;52.924;-2.388;2022-09-21T02:40:29;9;8;
71872;PMS5003;59745;52.924;-2.388;2022-09-21T02:42:55;11;11;
71872;PMS5003;59745;52.924;-2.388;2022-09-21T02:45:19;9;9;
71872;PMS5003;59745;52.924;-2.388;2022-09-21T02:47:45;9;9;
71872;PMS5003;59745;52.924;-2.388;2022-09-21T02:50:11;12;10;
71872;PMS5003;59745;52.924;-2.388;2022-09-21T02:52:34;12;10;
71872;PMS5003;59745;52.924;-2.388;2022-09-21T02:54:59;14;14;
71872;PMS5003;59745;52.924;-2.388;2022-09-21T02:57:25;10;10;
71872;PMS5003;59745;52.924;-2.388;2022-09-21T02:59:50;14;14;
71872;PMS5003;59745;52.924;-2.388;2022-09-21T03:02:15;14;13;
71872;PMS5003;59745;52.924;-2.388;2022-09-21T03:04:40;12;11;
71872;PMS5003;59745;52.924;-2.388;2022-09-21T03:07:06;16;15;
71872;PMS5003;59745;52.924;-2.388;2022-09-21T03:09:31;13;13;
71872;PMS5003;59745;52.924;-2.388;2022-09-21T03:11:56;11;11;
71872;PMS5003;59745;52.924;-2.388;2022-09-21T03:14:21;11;11;
71872;PMS5003;59745;52.924;-2.388;2022-09-21T03:16:47;13;11;
71872;PMS5003;59745;52.924;-2.388;2022-09-21T03:19:12;14;13;
71872;PMS5003;59745;52.924;-2.388;2022-09-21T03:21:38;10;10;
71872;PMS5003;59745;52.924;-2.388;2022-09-21T03:24:03;11;10;
71872;PMS5003;59745;52.924;-2.388;2022-09-21T03:26:28;11;9;
71872;PMS5003;59745;52.924;-2.388;2022-09-21T03:28:53;8;7;
71872;PMS5003;59745;52.924;-2.388;2022-09-21T03:31:18;11;11;
71872;PMS5003;59745;52.924;-2.388;2022-09-21T03:33:44;12;11;
71872;PMS5003;59745;52.924;-2.388;2022-09-21T03:36:09;8;8;
71872;PMS5003;59745;52.924;-2.388;2022-09-21T03:38:34;11;10;
71872;PMS5003;59745;52.924;-2.388;2022-09-21T03:40:59;9;9;
71872;PMS5003;59745;52.924;-2.388;2022-09-21T03:43:24;7;7;
71872;PMS5003;59745;52.924;-2.388;2022-09-21T03:45:49;8;7;
71872;PMS5003;59745;52.924;-2.388;2022-09-21T03:48:14;6;6;
71872;PMS5003;59745;52.924;-2.388;2022-09-21T03:50:40;9;9;
71872;PMS5003;59745;52.924;-2.388;2022-09-21T03:53:05;7;7;
71872;PMS5003;59745;52.924;-2.388;2022-09-21T03:55:30;7;7;
71872;PMS5003;59745;52.924;-2.388;2022-09-21T03:57:55;12;10;
71872;PMS5003;59745;52.924;-2.388;2022-09-21T04:00:20;12;11;
71872;PMS5003;59745;52.924;-2.388;2022-09-21T04:02:45;11;10;
71872;PMS5003;59745;52.924;-2.388;2022-09-21T04:05:11;8;8;
71872;PMS5003;59745;52.924;-2.388;2022-09-21T04:07:36;9;9;
71872;PMS5003;59745;52.924;-2.388;2022-09-21T04:10:01;6;6;
71872;PMS5003;59745;52.924;-2.388;2022-09-21T04:12:26;8;8;
71872;PMS5003;59745;52.924;-2.388;2022-09-21T04:14:51;9;9;
71872;PMS5003;59745;52.924;-2.388;2022-09-21T04:17:16;8;6;
71872;PMS5003;59745;52.924;-2.388;2022-09-21T04:19:42;10;6;
71872;PMS5003;59745;52.924;-2.388;2022-09-21T04:22:07;9;9;
71872;PMS5003;59745;52.924;-2.388;2022-09-21T04:24:32;9;8;
71872;PMS5003;59745;52.924;-2.388;2022-09-21T04:26:57;9;8;
71872;PMS5003;59745;52.924;-2.388;2022-09-21T04:29:22;9;9;
71872;PMS5003;59745;52.924;-2.388;2022-09-21T04:31:47;9;9;
71872;PMS5003;59745;52.924;-2.388;2022-09-21T04:34:13;10;9;
71872;PMS5003;59745;52.924;-2.388;2022-09-21T04:36:38;9;8;
71872;PMS5003;59745;52.924;-2.388;2022-09-21T04:39:03;8;7;
71872;PMS5003;59745;52.924;-2.388;2022-09-21T04:41:28;11;10;
71872;PMS5003;59745;52.924;-2.388;2022-09-21T04:43:54;9;9;
71872;PMS5003;59745;52.924;-2.388;2022-09-21T04:46:19;11;11;
71872;PMS5003;59745;52.924;-2.388;2022-09-21T04:48:44;10;10;
71872;PMS5003;59745;52.924;-2.388;2022-09-21T04:51:09;10;8;
71872;PMS5003;59745;52.924;-2.388;2022-09-21T04:53:35;9;9;
71872;PMS5003;59745;52.924;-2.388;2022-09-21T04:56:00;11;11;
71872;PMS5003;59745;52.924;-2.388;2022-09-21T04:58:25;7;7;
71872;PMS5003;59745;52.924;-2.388;2022-09-21T05:00:50;12;11;
71872;PMS5003;59745;52.924;-2.388;2022-09-21T05:03:15;9;8;
71872;PMS5003;59745;52.924;-2.388;2022-09-21T05:05:44;11;9;
71872;PMS5003;59745;52.924;-2.388;2022-09-21T05:08:06;11;11;
71872;PMS5003;59745;52.924;-2.388;2022-09-21T05:10:31;13;13;
71872;PMS5003;59745;52.924;-2.388;2022-09-21T05:12:56;8;8;
71872;PMS5003;59745;52.924;-2.388;2022-09-21T05:15:21;13;11;
71872;PMS5003;59745;52.924;-2.388;2022-09-21T05:17:47;11;9;
71872;PMS5003;59745;52.924;-2.388;2022-09-21T05:20:12;18;16;
71872;PMS5003;59745;52.924;-2.388;2022-09-21T05:22:38;11;11;
71872;PMS5003;59745;52.924;-2.388;2022-09-21T05:25:03;13;13;
71872;PMS5003;59745;52.924;-2.388;2022-09-21T05:27:28;12;9;
71872;PMS5003;59745;52.924;-2.388;2022-09-21T05:29:53;14;12;
71872;PMS5003;59745;52.924;-2.388;2022-09-21T05:32:20;15;15;
71872;PMS5003;59745;52.924;-2.388;2022-09-21T05:34:46;17;14;
71872;PMS5003;59745;52.924;-2.388;2022-09-21T05:37:09;14;13;
71872;PMS5003;59745;52.924;-2.388;2022-09-21T05:39:34;14;13;
71872;PMS5003;59745;52.924;-2.388;2022-09-21T05:42:00;18;18;
71872;PMS5003;59745;52.924;-2.388;2022-09-21T05:44:25;16;14;
71872;PMS5003;59745;52.924;-2.388;2022-09-21T05:46:52;12;11;
71872;PMS5003;59745;52.924;-2.388;2022-09-21T05:49:17;14;13;
71872;PMS5003;59745;52.924;-2.388;2022-09-21T05:51:42;13;11;
71872;PMS5003;59745;52.924;-2.388;2022-09-21T05:54:07;12;12;
71872;PMS5003;59745;52.924;-2.388;2022-09-21T05:56:34;12;12;
71872;PMS5003;59745;52.924;-2.388;2022-09-21T05:58:59;13;13;
71872;PMS5003;59745;52.924;-2.388;2022-09-21T06:01:25;15;14;
71872;PMS5003;59745;52.924;-2.388;2022-09-21T06:03:47;13;12;
71872;PMS5003;59745;52.924;-2.388;2022-09-21T06:06:12;10;10;
71872;PMS5003;59745;52.924;-2.388;2022-09-21T06:08:38;10;10;
71872;PMS5003;59745;52.924;-2.388;2022-09-21T06:11:03;13;13;
71872;PMS5003;59745;52.924;-2.388;2022-09-21T06:13:28;15;13;
71872;PMS5003;59745;52.924;-2.388;2022-09-21T06:15:54;13;12;
71872;PMS5003;59745;52.924;-2.388;2022-09-21T06:18:19;12;11;
71872;PMS5003;59745;52.924;-2.388;2022-09-21T06:20:44;13;13;
71872;PMS5003;59745;52.924;-2.388;2022-09-21T06:23:10;16;14;
71872;PMS5003;59745;52.924;-2.388;2022-09-21T06:25:35;14;14;
71872;PMS5003;59745;52.924;-2.388;2022-09-21T06:28:01;15;14;
71872;PMS5003;59745;52.924;-2.388;2022-09-21T06:30:25;14;13;
71872;PMS5003;59745;52.924;-2.388;2022-09-21T06:32:51;15;14;
71872;PMS5003;59745;52.924;-2.388;2022-09-21T06:35:16;15;15;
71872;PMS5003;59745;52.924;-2.388;2022-09-21T06:37:42;15;13;
71872;PMS5003;59745;52.924;-2.388;2022-09-21T06:40:08;15;15;
71872;PMS5003;59745;52.924;-2.388;2022-09-21T06:42:32;16;14;
71872;PMS5003;59745;52.924;-2.388;2022-09-21T06:44:58;15;12;
71872;PMS5003;59745;52.924;-2.388;2022-09-21T06:47:24;14;14;
71872;PMS5003;59745;52.924;-2.388;2022-09-21T06:49:49;16;14;
71872;PMS5003;59745;52.924;-2.388;2022-09-21T06:52:14;14;13;
71872;PMS5003;59745;52.924;-2.388;2022-09-21T06:54:40;17;17;
71872;PMS5003;59745;52.924;-2.388;2022-09-21T06:57:06;15;14;
71872;PMS5003;59745;52.924;-2.388;2022-09-21T06:59:31;18;14;
71872;PMS5003;59745;52.924;-2.388;2022-09-21T07:01:57;15;15;
71872;PMS5003;59745;52.924;-2.388;2022-09-21T07:04:22;14;14;
71872;PMS5003;59745;52.924;-2.388;2022-09-21T07:06:48;14;13;
71872;PMS5003;59745;52.924;-2.388;2022-09-21T07:09:13;12;12;
71872;PMS5003;59745;52.924;-2.388;2022-09-21T07:11:38;16;15;
71872;PMS5003;59745;52.924;-2.388;2022-09-21T07:14:04;14;14;
71872;PMS5003;59745;52.924;-2.388;2022-09-21T07:16:29;13;13;
71872;PMS5003;59745;52.924;-2.388;2022-09-21T07:18:55;17;15;
71872;PMS5003;59745;52.924;-2.388;2022-09-21T07:21:20;19;18;
71872;PMS5003;59745;52.924;-2.388;2022-09-21T07:23:45;16;15;
71872;PMS5003;59745;52.924;-2.388;2022-09-21T07:26:11;13;13;
71872;PMS5003;59745;52.924;-2.388;2022-09-21T07:28:36;14;14;
71872;PMS5003;59745;52.924;-2.388;2022-09-21T07:31:04;15;14;
71872;PMS5003;59745;52.924;-2.388;2022-09-21T07:33:27;14;14;
71872;PMS5003;59745;52.924;-2.388;2022-09-21T07:35:52;13;12;
71872;PMS5003;59745;52.924;-2.388;2022-09-21T07:38:17;11;11;
71872;PMS5003;59745;52.924;-2.388;2022-09-21T07:40:43;15;15;
71872;PMS5003;59745;52.924;-2.388;2022-09-21T07:43:08;13;13;
71872;PMS5003;59745;52.924;-2.388;2022-09-21T07:45:33;15;13;
71872;PMS5003;59745;52.924;-2.388;2022-09-21T07:48:01;13;12;
71872;PMS5003;59745;52.924;-2.388;2022-09-21T07:50:23;13;12;
71872;PMS5003;59745;52.924;-2.388;2022-09-21T07:52:48;12;12;
71872;PMS5003;59745;52.924;-2.388;2022-09-21T07:55:14;14;13;
71872;PMS5003;59745;52.924;-2.388;2022-09-21T07:57:39;14;12;
71872;PMS5003;59745;52.924;-2.388;2022-09-21T08:00:05;11;11;
71872;PMS5003;59745;52.924;-2.388;2022-09-21T08:02:30;12;11;
71872;PMS5003;59745;52.924;-2.388;2022-09-21T08:04:55;11;11;
71872;PMS5003;59745;52.924;-2.388;2022-09-21T08:07:21;12;11;
71872;PMS5003;59745;52.924;-2.388;2022-09-21T08:09:46;13;12;
71872;PMS5003;59745;52.924;-2.388;2022-09-21T08:12:11;11;11;
71872;PMS5003;59745;52.924;-2.388;2022-09-21T08:14:36;12;11;
71872;PMS5003;59745;52.924;-2.388;2022-09-21T08:17:02;12;12;
71872;PMS5003;59745;52.924;-2.388;2022-09-21T08:19:27;12;12;
71872;PMS5003;59745;52.924;-2.388;2022-09-21T08:21:52;13;13;
71872;PMS5003;59745;52.924;-2.388;2022-09-21T08:24:18;13;11;
71872;PMS5003;59745;52.924;-2.388;2022-09-21T08:26:43;13;13;
71872;PMS5003;59745;52.924;-2.388;2022-09-21T08:29:08;12;10;
71872;PMS5003;59745;52.924;-2.388;2022-09-21T08:31:34;12;12;
71872;PMS5003;59745;52.924;-2.388;2022-09-21T08:33:59;12;12;
71872;PMS5003;59745;52.924;-2.388;2022-09-21T08:36:24;8;8;
71872;PMS5003;59745;52.924;-2.388;2022-09-21T08:38:49;11;11;
71872;PMS5003;59745;52.924;-2.388;2022-09-21T08:41:16;11;10;
71872;PMS5003;59745;52.924;-2.388;2022-09-21T08:43:41;10;10;
71872;PMS5003;59745;52.924;-2.388;2022-09-21T08:46:05;11;11;
71872;PMS5003;59745;52.924;-2.388;2022-09-21T08:48:31;12;12;
71872;PMS5003;59745;52.924;-2.388;2022-09-21T08:50:56;12;11;
71872;PMS5003;59745;52.924;-2.388;2022-09-21T08:53:23;10;10;
71872;PMS5003;59745;52.924;-2.388;2022-09-21T08:55:46;13;12;
71872;PMS5003;59745;52.924;-2.388;2022-09-21T08:58:18;11;11;
71872;PMS5003;59745;52.924;-2.388;2022-09-21T09:00:36;12;12;
71872;PMS5003;59745;52.924;-2.388;2022-09-21T09:03:12;15;14;
71872;PMS5003;59745;52.924;-2.388;2022-09-21T09:05:32;11;11;
71872;PMS5003;59745;52.924;-2.388;2022-09-21T09:07:58;9;9;
71872;PMS5003;59745;52.924;-2.388;2022-09-21T09:10:21;13;12;
71872;PMS5003;59745;52.924;-2.388;2022-09-21T09:12:48;12;11;
71872;PMS5003;59745;52.924;-2.388;2022-09-21T09:15:13;11;10;
71872;PMS5003;59745;52.924;-2.388;2022-09-21T09:17:38;11;10;
71872;PMS5003;59745;52.924;-2.388;2022-09-21T09:19:59;11;11;
71872;PMS5003;59745;52.924;-2.388;2022-09-21T09:22:24;10;10;
71872;PMS5003;59745;52.924;-2.388;2022-09-21T09:24:50;12;12;
71872;PMS5003;59745;52.924;-2.388;2022-09-21T09:27:16;10;10;
71872;PMS5003;59745;52.924;-2.388;2022-09-21T09:29:41;8;7;
71872;PMS5003;59745;52.924;-2.388;2022-09-21T09:32:05;15;13;
71872;PMS5003;59745;52.924;-2.388;2022-09-21T09:34:30;9;9;
71872;PMS5003;59745;52.924;-2.388;2022-09-21T09:36:56;7;7;
71872;PMS5003;59745;52.924;-2.388;2022-09-21T09:39:20;9;9;
71872;PMS5003;59745;52.924;-2.388;2022-09-21T09:41:50;9;9;
71872;PMS5003;59745;52.924;-2.388;2022-09-21T09:44:17;11;11;
71872;PMS5003;59745;52.924;-2.388;2022-09-21T09:46:36;10;10;
71872;PMS5003;59745;52.924;-2.388;2022-09-21T09:49:05;11;11;
71872;PMS5003;59745;52.924;-2.388;2022-09-21T09:51:26;14;12;
71872;PMS5003;59745;52.924;-2.388;2022-09-21T09:53:51;12;11;
71872;PMS5003;59745;52.924;-2.388;2022-09-21T09:56:16;11;11;
71872;PMS5003;59745;52.924;-2.388;2022-09-21T09:58:42;13;12;
71872;PMS5003;59745;52.924;-2.388;2022-09-21T10:01:07;13;12;
71872;PMS5003;59745;52.924;-2.388;2022-09-21T10:03:32;13;12;
71872;PMS5003;59745;52.924;-2.388;2022-09-21T10:05:57;12;11;
71872;PMS5003;59745;52.924;-2.388;2022-09-21T10:08:29;12;12;
71872;PMS5003;59745;52.924;-2.388;2022-09-21T10:10:48;16;15;
71872;PMS5003;59745;52.924;-2.388;2022-09-21T10:13:15;12;12;
71872;PMS5003;59745;52.924;-2.388;2022-09-21T10:15:39;10;10;
71872;PMS5003;59745;52.924;-2.388;2022-09-21T10:18:09;14;13;
71872;PMS5003;59745;52.924;-2.388;2022-09-21T10:20:28;16;15;
71872;PMS5003;59745;52.924;-2.388;2022-09-21T10:22:53;15;15;
71872;PMS5003;59745;52.924;-2.388;2022-09-21T10:25:18;13;12;
71872;PMS5003;59745;52.924;-2.388;2022-09-21T10:27:44;14;13;
71872;PMS5003;59745;52.924;-2.388;2022-09-21T10:30:12;13;13;
71872;PMS5003;59745;52.924;-2.388;2022-09-21T10:32:34;12;12;
71872;PMS5003;59745;52.924;-2.388;2022-09-21T10:35:13;11;10;
71872;PMS5003;59745;52.924;-2.388;2022-09-21T10:37:25;15;13;
71872;PMS5003;59745;52.924;-2.388;2022-09-21T10:39:49;13;12;
71872;PMS5003;59745;52.924;-2.388;2022-09-21T10:42:15;12;12;
71872;PMS5003;59745;52.924;-2.388;2022-09-21T10:44:40;16;15;
71872;PMS5003;59745;52.924;-2.388;2022-09-21T10:49:30;11;11;
71872;PMS5003;59745;52.924;-2.388;2022-09-21T10:51:56;13;12;
71872;PMS5003;59745;52.924;-2.388;2022-09-21T10:54:22;13;13;
71872;PMS5003;59745;52.924;-2.388;2022-09-21T10:56:50;12;12;
71872;PMS5003;59745;52.924;-2.388;2022-09-21T10:59:16;14;14;
71872;PMS5003;59745;52.924;-2.388;2022-09-21T11:01:36;8;8;
71872;PMS5003;59745;52.924;-2.388;2022-09-21T11:04:02;11;9;
71872;PMS5003;59745;52.924;-2.388;2022-09-21T11:06:28;11;11;
71872;PMS5003;59745;52.924;-2.388;2022-09-21T11:08:53;15;13;
71872;PMS5003;59745;52.924;-2.388;2022-09-21T11:11:28;10;10;
71872;PMS5003;59745;52.924;-2.388;2022-09-21T11:13:43;9;9;
71872;PMS5003;59745;52.924;-2.388;2022-09-21T11:16:10;11;10;
71872;PMS5003;59745;52.924;-2.388;2022-09-21T11:18:36;12;12;
71872;PMS5003;59745;52.924;-2.388;2022-09-21T11:21:01;11;10;
71872;PMS5003;59745;52.924;-2.388;2022-09-21T11:23:30;10;10;
71872;PMS5003;59745;52.924;-2.388;2022-09-21T11:25:52;12;12;
71872;PMS5003;59745;52.924;-2.388;2022-09-21T11:28:17;12;11;
71872;PMS5003;59745;52.924;-2.388;2022-09-21T11:30:45;11;11;
71872;PMS5003;59745;52.924;-2.388;2022-09-21T11:33:09;11;11;
71872;PMS5003;59745;52.924;-2.388;2022-09-21T11:35:34;11;11;
71872;PMS5003;59745;52.924;-2.388;2022-09-21T11:38:00;12;11;
71872;PMS5003;59745;52.924;-2.388;2022-09-21T11:40:29;11;10;
71872;PMS5003;59745;52.924;-2.388;2022-09-21T11:42:47;11;11;
71872;PMS5003;59745;52.924;-2.388;2022-09-21T11:45:19;16;14;
71872;PMS5003;59745;52.924;-2.388;2022-09-21T11:47:45;15;13;
71872;PMS5003;59745;52.924;-2.388;2022-09-21T11:50:07;9;9;
71872;PMS5003;59745;52.924;-2.388;2022-09-21T11:52:32;12;12;
71872;PMS5003;59745;52.924;-2.388;2022-09-21T11:54:56;11;11;
71872;PMS5003;59745;52.924;-2.388;2022-09-21T11:57:20;10;10;
71872;PMS5003;59745;52.924;-2.388;2022-09-21T11:59:48;12;10;
71872;PMS5003;59745;52.924;-2.388;2022-09-21T12:02:20;12;10;
71872;PMS5003;59745;52.924;-2.388;2022-09-21T12:04:39;11;11;
71872;PMS5003;59745;52.924;-2.388;2022-09-21T12:07:04;12;11;
71872;PMS5003;59745;52.924;-2.388;2022-09-21T12:09:28;9;7;
71872;PMS5003;59745;52.924;-2.388;2022-09-21T12:11:50;12;11;
71872;PMS5003;59745;52.924;-2.388;2022-09-21T12:14:16;10;10;
71872;PMS5003;59745;52.924;-2.388;2022-09-21T12:16:40;10;9;
71872;PMS5003;59745;52.924;-2.388;2022-09-21T12:19:05;9;9;
71872;PMS5003;59745;52.924;-2.388;2022-09-21T12:21:30;11;10;
71872;PMS5003;59745;52.924;-2.388;2022-09-21T12:23:55;10;9;
71872;PMS5003;59745;52.924;-2.388;2022-09-21T12:26:19;8;8;
71872;PMS5003;59745;52.924;-2.388;2022-09-21T12:28:45;11;10;
71872;PMS5003;59745;52.924;-2.388;2022-09-21T12:31:10;8;8;
71872;PMS5003;59745;52.924;-2.388;2022-09-21T12:33:35;8;8;
71872;PMS5003;59745;52.924;-2.388;2022-09-21T12:36:02;8;8;
71872;PMS5003;59745;52.924;-2.388;2022-09-21T12:38:26;6;6;
71872;PMS5003;59745;52.924;-2.388;2022-09-21T12:40:51;8;7;
71872;PMS5003;59745;52.924;-2.388;2022-09-21T12:43:18;7;7;
71872;PMS5003;59745;52.924;-2.388;2022-09-21T12:45:40;8;7;
71872;PMS5003;59745;52.924;-2.388;2022-09-21T12:48:07;6;6;
71872;PMS5003;59745;52.924;-2.388;2022-09-21T12:50:33;7;7;
71872;PMS5003;59745;52.924;-2.388;2022-09-21T12:52:55;5;5;
71872;PMS5003;59745;52.924;-2.388;2022-09-21T12:55:31;4;4;
71872;PMS5003;59745;52.924;-2.388;2022-09-21T12:57:48;5;5;
71872;PMS5003;59745;52.924;-2.388;2022-09-21T13:00:12;5;5;
71872;PMS5003;59745;52.924;-2.388;2022-09-21T13:02:36;5;5;
71872;PMS5003;59745;52.924;-2.388;2022-09-21T13:05:03;5;5;
71872;PMS5003;59745;52.924;-2.388;2022-09-21T13:07:29;7;5;
71872;PMS5003;59745;52.924;-2.388;2022-09-21T13:09:50;5;5;
71872;PMS5003;59745;52.924;-2.388;2022-09-21T13:12:16;7;7;
71872;PMS5003;59745;52.924;-2.388;2022-09-21T13:14:41;6;5;
71872;PMS5003;59745;52.924;-2.388;2022-09-21T13:17:06;7;5;
71872;PMS5003;59745;52.924;-2.388;2022-09-21T13:19:31;6;6;
71872;PMS5003;59745;52.924;-2.388;2022-09-21T13:24:23;7;6;
71872;PMS5003;59745;52.924;-2.388;2022-09-21T13:26:50;6;4;
71872;PMS5003;59745;52.924;-2.388;2022-09-21T13:31:39;6;6;
71872;PMS5003;59745;52.924;-2.388;2022-09-21T13:34:05;7;6;
71872;PMS5003;59745;52.924;-2.388;2022-09-21T13:36:30;6;6;
71872;PMS5003;59745;52.924;-2.388;2022-09-21T13:38:56;5;5;
71872;PMS5003;59745;52.924;-2.388;2022-09-21T13:43:45;6;5;
71872;PMS5003;59745;52.924;-2.388;2022-09-21T13:46:06;7;6;
71872;PMS5003;59745;52.924;-2.388;2022-09-21T13:48:31;7;7;
71872;PMS5003;59745;52.924;-2.388;2022-09-21T13:50:58;6;6;
71872;PMS5003;59745;52.924;-2.388;2022-09-21T13:53:22;5;5;
71872;PMS5003;59745;52.924;-2.388;2022-09-21T13:55:47;4;4;
71872;PMS5003;59745;52.924;-2.388;2022-09-21T13:58:17;6;5;
71872;PMS5003;59745;52.924;-2.388;2022-09-21T14:00:37;6;5;
71872;PMS5003;59745;52.924;-2.388;2022-09-21T14:03:02;7;7;
71872;PMS5003;59745;52.924;-2.388;2022-09-21T14:05:29;7;6;
71872;PMS5003;59745;52.924;-2.388;2022-09-21T14:07:53;6;6;
71872;PMS5003;59745;52.924;-2.388;2022-09-21T14:10:17;4;4;
71872;PMS5003;59745;52.924;-2.388;2022-09-21T14:12:42;6;6;
71872;PMS5003;59745;52.924;-2.388;2022-09-21T14:15:08;6;6;
71872;PMS5003;59745;52.924;-2.388;2022-09-21T14:17:32;5;5;
71872;PMS5003;59745;52.924;-2.388;2022-09-21T14:19:57;7;6;
71872;PMS5003;59745;52.924;-2.388;2022-09-21T14:24:47;6;5;
71872;PMS5003;59745;52.924;-2.388;2022-09-21T14:27:13;5;5;
71872;PMS5003;59745;52.924;-2.388;2022-09-21T14:29:39;7;6;
71872;PMS5003;59745;52.924;-2.388;2022-09-21T14:32:03;6;6;
71872;PMS5003;59745;52.924;-2.388;2022-09-21T14:34:29;5;5;
71872;PMS5003;59745;52.924;-2.388;2022-09-21T14:36:53;6;6;
71872;PMS5003;59745;52.924;-2.388;2022-09-21T14:39:19;5;5;
71872;PMS5003;59745;52.924;-2.388;2022-09-21T14:41:43;4;4;
71872;PMS5003;59745;52.924;-2.388;2022-09-21T14:44:11;5;5;
71872;PMS5003;59745;52.924;-2.388;2022-09-21T14:46:38;5;5;
71872;PMS5003;59745;52.924;-2.388;2022-09-21T14:49:01;5;5;
71872;PMS5003;59745;52.924;-2.388;2022-09-21T14:51:25;5;5;
71872;PMS5003;59745;52.924;-2.388;2022-09-21T14:56:19;5;5;
71872;PMS5003;59745;52.924;-2.388;2022-09-21T14:58:42;4;4;
71872;PMS5003;59745;52.924;-2.388;2022-09-21T15:03:32;4;3;
71872;PMS5003;59745;52.924;-2.388;2022-09-21T15:05:54;7;6;
71872;PMS5003;59745;52.924;-2.388;2022-09-21T15:08:24;4;4;
71872;PMS5003;59745;52.924;-2.388;2022-09-21T15:10:49;6;6;
71872;PMS5003;59745;52.924;-2.388;2022-09-21T15:13:16;4;4;
71872;PMS5003;59745;52.924;-2.388;2022-09-21T15:15:34;4;4;
71872;PMS5003;59745;52.924;-2.388;2022-09-21T15:17:59;6;6;
71872;PMS5003;59745;52.924;-2.388;2022-09-21T15:20:24;4;4;
71872;PMS5003;59745;52.924;-2.388;2022-09-21T15:22:48;5;5;
71872;PMS5003;59745;52.924;-2.388;2022-09-21T15:25:13;5;5;
71872;PMS5003;59745;52.924;-2.388;2022-09-21T15:27:40;4;3;
71872;PMS5003;59745;52.924;-2.388;2022-09-21T15:30:04;5;4;
71872;PMS5003;59745;52.924;-2.388;2022-09-21T15:32:32;5;5;
71872;PMS5003;59745;52.924;-2.388;2022-09-21T15:34:57;7;6;
71872;PMS5003;59745;52.924;-2.388;2022-09-21T15:37:18;5;5;
71872;PMS5003;59745;52.924;-2.388;2022-09-21T15:39:43;6;6;
71872;PMS5003;59745;52.924;-2.388;2022-09-21T15:42:13;7;7;
71872;PMS5003;59745;52.924;-2.388;2022-09-21T15:44:34;4;4;
71872;PMS5003;59745;52.924;-2.388;2022-09-21T15:46:59;5;5;
71872;PMS5003;59745;52.924;-2.388;2022-09-21T15:49:23;6;4;
71872;PMS5003;59745;52.924;-2.388;2022-09-21T15:51:49;6;6;
71872;PMS5003;59745;52.924;-2.388;2022-09-21T15:54:18;6;5;
71872;PMS5003;59745;52.924;-2.388;2022-09-21T15:56:39;7;6;
71872;PMS5003;59745;52.924;-2.388;2022-09-21T15:59:04;6;6;
71872;PMS5003;59745;52.924;-2.388;2022-09-21T16:01:29;7;7;
71872;PMS5003;59745;52.924;-2.388;2022-09-21T16:06:24;5;5;
71872;PMS5003;59745;52.924;-2.388;2022-09-21T16:08:44;6;6;
71872;PMS5003;59745;52.924;-2.388;2022-09-21T16:11:10;7;7;
71872;PMS5003;59745;52.924;-2.388;2022-09-21T16:13:34;8;7;
71872;PMS5003;59745;52.924;-2.388;2022-09-21T16:15:59;7;6;
71872;PMS5003;59745;52.924;-2.388;2022-09-21T16:18:29;6;6;
71872;PMS5003;59745;52.924;-2.388;2022-09-21T16:20:49;6;6;